KMWH/MWH METAR and TAF weather

Enter ICAO airport designator
Station Type Date Time Source
KMWH METAR 2019/12/09 13:52 UTC NOAA

KMWH 091352Z 00000KT 10SM CLR M03/M06 A3026 RMK AO2 SLP262 I1000 T10281056


Station Type Date Time Source
KMWH Decoded METAR 2019/12/09 13:52 UTC NOAA

GRANT COUNTY AIRPORT, WA, United States (KMWH) 47-12N 119-19W 362M
Dec 09, 2019 - 08:52 AM EST / 2019.12.09 1352 UTC
Wind: Calm:0
Visibility: 10 mile(s):0
Sky conditions: clear
Temperature: 27.0 F (-2.8 C)
Dew Point: 21.9 F (-5.6 C)
Relative Humidity: 81%
Pressure (altimeter): 30.26 in. Hg (1024 hPa)
ob: KMWH 091352Z 00000KT 10SM CLR M03/M06 A3026 RMK AO2 SLP262 I1000 T10281056
cycle: 14

Station Type Date Time Source
KMWH TAF 2019/12/09 13:06 UTC NOAA

TAF
AMD KMWH 091303Z 0913/1012 35003KT 4SM BR SCT001
FM091400 02002KT 6SM BR BKN006
FM091700 VRB03KT P6SM OVC005
FM100700 35004KT 1/2SM FG OVC003

Example: see airport list